createdAt,value
2022-08-01T00:00:23.038Z,9.77
2022-08-01T00:03:12.254Z,6.88
2022-08-01T00:05:53.997Z,9.27
2022-08-01T00:08:44.058Z,12.73
2022-08-01T00:11:33.025Z,10.50
2022-08-01T00:14:22.127Z,10.90
2022-08-01T00:17:15.678Z,9.65
2022-08-01T00:20:04.472Z,10.90
2022-08-01T00:22:58.788Z,9.75
2022-08-01T00:25:47.142Z,14.70
2022-08-01T00:28:29.025Z,11.50
2022-08-01T00:31:16.722Z,9.15
2022-08-01T00:33:59.313Z,8.27
2022-08-01T00:36:47.723Z,7.97
2022-08-01T00:39:28.932Z,4.65
2022-08-01T00:42:19.214Z,6.32
2022-08-01T00:45:00.011Z,10.73
2022-08-01T00:47:48.193Z,4.55
2022-08-01T00:50:36.807Z,7.55
2022-08-01T00:53:24.923Z,8.82
2022-08-01T00:56:07.036Z,6.93
2022-08-01T00:58:55.222Z,5.78
2022-08-01T01:01:39.624Z,5.72
2022-08-01T01:04:27.236Z,10.52
2022-08-01T01:07:17.807Z,8.20
2022-08-01T01:10:29.168Z,7.80
2022-08-01T01:13:20.452Z,5.60
2022-08-01T01:16:13.202Z,5.93
2022-08-01T01:19:08.073Z,7.72
2022-08-01T01:22:30.051Z,5.93
2022-08-01T01:25:45.212Z,6.90
2022-08-01T01:28:42.714Z,7.57
2022-08-01T01:31:33.902Z,7.07
2022-08-01T01:34:19.212Z,5.25
2022-08-01T01:37:09.451Z,7.05
2022-08-01T01:39:54.618Z,7.60
2022-08-01T01:42:43.115Z,4.00
2022-08-01T01:45:26.207Z,5.72
2022-08-01T01:48:15.051Z,7.82
2022-08-01T01:50:59.229Z,4.68
2022-08-01T01:53:49.857Z,5.18
2022-08-01T01:56:33.212Z,7.05
2022-08-01T01:59:29.072Z,4.90
2022-08-01T02:02:15.813Z,3.53
2022-08-01T02:05:06.582Z,6.68
2022-08-01T02:07:49.224Z,7.28
2022-08-01T02:10:39.103Z,6.10
2022-08-01T02:13:21.334Z,7.30
2022-08-01T02:16:11.096Z,5.00
2022-08-01T02:18:52.279Z,6.72
2022-08-01T02:21:47.120Z,7.82
2022-08-01T02:24:48.913Z,3.85
2022-08-01T02:27:37.211Z,6.18
2022-08-01T02:30:25.232Z,6.78
2022-08-01T02:33:15.830Z,4.90
2022-08-01T02:36:32.083Z,4.68
2022-08-01T02:39:12.130Z,3.85
2022-08-01T02:42:05.434Z,4.75
2022-08-01T02:44:53.125Z,6.00
2022-08-01T02:47:45.604Z,2.55
2022-08-01T02:50:27.138Z,5.15
2022-08-01T02:53:17.194Z,8.05
2022-08-01T02:56:01.131Z,5.63
2022-08-01T02:58:51.417Z,4.03
2022-08-01T03:01:34.125Z,2.25
2022-08-01T03:04:26.232Z,2.42
2022-08-01T03:07:10.127Z,1.67
2022-08-01T03:09:59.256Z,1.75
2022-08-01T03:12:42.144Z,2.42
2022-08-01T03:15:32.244Z,2.90
2022-08-01T03:18:16.518Z,1.95
2022-08-01T03:21:05.361Z,1.73
2022-08-01T03:23:57.129Z,1.92
2022-08-01T03:26:41.320Z,1.55
2022-08-01T03:29:32.503Z,1.40
2022-08-01T03:32:15.933Z,1.88
2022-08-01T03:35:06.607Z,1.35
2022-08-01T03:38:17.520Z,3.08
2022-08-01T03:41:06.163Z,2.65
2022-08-01T03:44:04.781Z,2.20
2022-08-01T03:46:56.437Z,3.30
2022-08-01T03:49:41.811Z,1.65
2022-08-01T03:52:30.911Z,1.65
2022-08-01T03:55:16.043Z,2.00
2022-08-01T03:58:07.134Z,1.70
2022-08-01T04:00:50.310Z,2.15
2022-08-01T04:03:41.889Z,0.73
2022-08-01T04:06:24.656Z,1.70
2022-08-01T04:09:14.070Z,1.17
2022-08-01T04:11:55.247Z,0.52
2022-08-01T04:14:42.204Z,0.40
2022-08-01T04:17:24.343Z,0.70
2022-08-01T04:20:12.590Z,0.68
2022-08-01T04:23:06.148Z,0.77
2022-08-01T04:25:55.145Z,0.43
2022-08-01T04:28:40.872Z,2.00
2022-08-01T04:31:33.153Z,1.48
2022-08-01T04:34:14.303Z,0.40
2022-08-01T04:37:03.193Z,1.08
2022-08-01T04:39:50.689Z,1.45
2022-08-01T04:42:39.561Z,0.40
2022-08-01T04:45:20.335Z,0.55
2022-08-01T04:48:08.553Z,1.08
2022-08-01T04:50:49.856Z,1.13
2022-08-01T04:53:37.218Z,1.50
2022-08-01T04:56:18.313Z,1.20
2022-08-01T04:59:24.940Z,0.50
2022-08-01T05:02:09.486Z,0.40
2022-08-01T05:04:58.988Z,0.30
2022-08-01T05:07:44.826Z,0.90
2022-08-01T05:10:36.171Z,0.63
2022-08-01T05:13:17.818Z,0.85
2022-08-01T05:16:04.227Z,0.65
2022-08-01T05:18:45.400Z,2.15
2022-08-01T05:21:34.213Z,0.57
2022-08-01T05:24:24.368Z,1.17
2022-08-01T05:27:07.231Z,0.40
2022-08-01T05:29:55.329Z,1.38
2022-08-01T05:32:38.978Z,1.85
2022-08-01T05:35:48.365Z,3.90
2022-08-01T05:38:31.012Z,0.68
2022-08-01T05:41:18.301Z,3.35
2022-08-01T05:43:59.217Z,1.38
2022-08-01T05:46:47.556Z,0.57
2022-08-01T05:49:28.660Z,0.60
2022-08-01T05:52:15.426Z,0.77
2022-08-01T05:54:56.238Z,0.63
2022-08-01T05:57:46.892Z,0.98
2022-08-01T06:00:27.601Z,1.80
2022-08-01T06:03:16.366Z,0.60
2022-08-01T06:05:59.491Z,1.02
2022-08-01T06:08:47.431Z,0.30
2022-08-01T06:11:28.991Z,0.70
2022-08-01T06:14:21.494Z,1.55
2022-08-01T06:17:02.820Z,1.05
2022-08-01T06:19:51.188Z,1.85
2022-08-01T06:22:51.777Z,1.85
2022-08-01T06:25:40.354Z,1.02
2022-08-01T06:28:21.227Z,0.40
2022-08-01T06:31:13.617Z,0.93
2022-08-01T06:33:56.783Z,1.48
2022-08-01T06:36:43.345Z,4.43
2022-08-01T06:39:25.039Z,3.88
2022-08-01T06:42:15.917Z,2.05
2022-08-01T06:44:56.278Z,2.08
2022-08-01T06:47:48.868Z,0.63
2022-08-01T06:50:31.260Z,0.85
2022-08-01T06:53:21.186Z,2.10
2022-08-01T06:56:03.771Z,1.42
2022-08-01T06:58:52.508Z,0.35
2022-08-01T07:01:35.214Z,0.50
2022-08-01T07:04:23.594Z,1.73
2022-08-01T07:07:04.410Z,0.63
2022-08-01T07:09:52.366Z,0.32
2022-08-01T07:12:35.410Z,0.52
2022-08-01T07:15:27.521Z,0.70
2022-08-01T07:18:11.667Z,2.05
2022-08-01T07:20:59.525Z,2.58
2022-08-01T07:23:55.750Z,0.68
2022-08-01T07:29:36.426Z,0.68
2022-08-01T07:32:23.451Z,1.98
2022-08-01T07:35:05.810Z,1.15
2022-08-01T07:40:40.412Z,3.25
2022-08-01T07:43:31.415Z,2.78
2022-08-01T07:46:14.042Z,0.80
2022-08-01T07:49:03.007Z,2.33
2022-08-01T07:52:03.435Z,1.05
2022-08-01T07:54:52.662Z,1.55
2022-08-01T07:57:33.296Z,1.15
2022-08-01T08:00:21.911Z,2.38
2022-08-01T08:03:06.875Z,1.48
2022-08-01T08:05:59.727Z,3.25
2022-08-01T08:08:42.316Z,2.17
2022-08-01T08:11:32.609Z,2.42
2022-08-01T08:14:13.312Z,2.38
2022-08-01T08:17:02.600Z,0.70
2022-08-01T08:19:46.690Z,0.95
2022-08-01T08:22:41.307Z,1.15
2022-08-01T08:25:30.681Z,1.73
2022-08-01T08:28:11.492Z,5.68
2022-08-01T08:31:03.214Z,3.38
2022-08-01T08:33:44.448Z,5.13
2022-08-01T08:36:32.421Z,1.10
2022-08-01T08:39:14.479Z,4.72
2022-08-01T08:42:09.269Z,4.07
2022-08-01T08:44:51.345Z,4.20
2022-08-01T08:47:43.570Z,2.53
2022-08-01T08:50:24.527Z,2.35
2022-08-01T08:53:18.280Z,3.15
2022-08-01T08:56:02.818Z,1.05
2022-08-01T08:58:53.000Z,1.20
2022-08-01T09:01:36.316Z,0.98
2022-08-01T09:04:27.141Z,4.55
2022-08-01T09:07:09.811Z,0.88
2022-08-01T09:10:00.520Z,1.55
2022-08-01T09:12:42.695Z,0.68
2022-08-01T09:15:46.714Z,0.57
2022-08-01T09:18:35.125Z,3.58
2022-08-01T09:21:25.767Z,1.38
2022-08-01T09:24:30.937Z,1.25
2022-08-01T09:30:26.168Z,1.52
2022-08-01T09:33:21.867Z,0.95
2022-08-01T09:36:05.467Z,1.40
2022-08-01T09:38:53.465Z,4.28
2022-08-01T09:41:40.241Z,1.00
2022-08-01T09:44:55.132Z,4.18
2022-08-01T09:47:46.541Z,8.98
2022-08-01T09:50:47.061Z,3.22
2022-08-01T09:53:31.003Z,1.13
2022-08-01T09:56:20.379Z,3.20
2022-08-01T09:59:06.867Z,1.45
2022-08-01T10:01:56.739Z,2.78
2022-08-01T10:04:38.400Z,2.78
2022-08-01T10:07:27.680Z,2.65
2022-08-01T10:10:23.511Z,3.28
2022-08-01T10:13:17.371Z,3.20
2022-08-01T10:15:58.625Z,1.63
2022-08-01T10:18:50.188Z,2.22
2022-08-01T10:21:35.616Z,2.00
2022-08-01T10:24:47.440Z,1.77
2022-08-01T10:27:38.406Z,1.15
2022-08-01T10:30:29.759Z,2.63
2022-08-01T10:33:19.917Z,2.65
2022-08-01T10:36:21.394Z,1.35
2022-08-01T10:39:05.366Z,3.47
2022-08-01T10:41:54.389Z,1.55
2022-08-01T10:44:38.659Z,4.45
2022-08-01T10:47:49.735Z,2.03
2022-08-01T10:50:43.317Z,2.83
2022-08-01T10:53:42.938Z,4.82
2022-08-01T10:56:48.768Z,3.65
2022-08-01T10:59:50.026Z,2.67
2022-08-01T11:02:45.692Z,2.35
2022-08-01T11:05:30.843Z,2.25
2022-08-01T11:08:29.512Z,3.47
2022-08-01T11:11:12.410Z,3.67
2022-08-01T11:14:16.445Z,1.98
2022-08-01T11:16:59.392Z,2.63
2022-08-01T11:20:31.642Z,2.00
2022-08-01T11:23:25.471Z,3.67
2022-08-01T11:26:17.634Z,1.92
2022-08-01T11:29:22.580Z,4.10
2022-08-01T11:32:42.430Z,2.47
2022-08-01T11:35:34.448Z,2.92
2022-08-01T11:38:35.097Z,1.50
2022-08-01T11:41:18.430Z,1.90
2022-08-01T11:44:16.632Z,2.45
2022-08-01T11:47:10.751Z,8.88
2022-08-01T11:50:02.648Z,5.10
2022-08-01T11:52:47.246Z,5.10
2022-08-01T11:55:36.571Z,3.20
2022-08-01T11:58:22.015Z,7.53
2022-08-01T12:01:15.810Z,1.65
2022-08-01T12:07:20.618Z,1.95
2022-08-01T12:10:19.475Z,2.67
2022-08-01T12:13:13.762Z,4.03
2022-08-01T12:15:56.912Z,4.32
2022-08-01T12:18:50.610Z,2.87
2022-08-01T12:21:32.210Z,2.05
2022-08-01T12:24:36.440Z,2.25
2022-08-01T12:27:34.634Z,2.03
2022-08-01T12:30:17.643Z,3.50
2022-08-01T12:33:06.516Z,2.30
2022-08-01T12:35:49.123Z,1.63
2022-08-01T12:38:41.963Z,2.13
2022-08-01T12:41:22.608Z,3.47
2022-08-01T12:44:09.482Z,6.47
2022-08-01T12:46:52.776Z,3.65
2022-08-01T12:49:43.473Z,1.65
2022-08-01T12:52:26.805Z,1.77
2022-08-01T12:55:33.914Z,1.80
2022-08-01T12:58:18.121Z,4.47
2022-08-01T13:01:17.933Z,4.18
2022-08-01T13:04:07.686Z,3.47
2022-08-01T13:07:01.133Z,2.33
2022-08-01T13:09:43.373Z,3.15
2022-08-01T13:12:30.857Z,5.88
2022-08-01T13:15:31.976Z,2.15
2022-08-01T13:18:39.488Z,1.85
2022-08-01T13:21:54.567Z,4.18
2022-08-01T13:24:51.771Z,3.60
2022-08-01T13:27:38.599Z,2.03
2022-08-01T13:30:34.528Z,2.65
2022-08-01T13:33:23.283Z,3.45
2022-08-01T13:36:06.496Z,1.75
2022-08-01T13:39:12.098Z,2.85
2022-08-01T13:41:54.663Z,3.05
2022-08-01T13:44:47.007Z,3.55
2022-08-01T13:47:31.635Z,4.68
2022-08-01T13:50:19.726Z,2.97
2022-08-01T13:53:01.688Z,2.50
2022-08-01T13:55:50.692Z,3.45
2022-08-01T13:58:31.631Z,4.60
2022-08-01T14:01:23.851Z,1.83
2022-08-01T14:04:06.927Z,1.63
2022-08-01T14:06:58.686Z,1.98
2022-08-01T14:09:45.033Z,2.00
2022-08-01T14:12:50.945Z,2.53
2022-08-01T14:15:38.656Z,4.32
2022-08-01T14:18:30.221Z,6.45
2022-08-01T14:21:11.908Z,3.95
2022-08-01T14:23:59.619Z,6.20
2022-08-01T14:26:40.914Z,2.53
2022-08-01T14:30:01.175Z,3.28
2022-08-01T14:32:29.545Z,3.67
2022-08-01T14:35:16.733Z,2.63
2022-08-01T14:37:58.544Z,2.30
2022-08-01T14:40:52.275Z,2.42
2022-08-01T14:43:34.054Z,3.70
2022-08-01T14:46:24.642Z,2.65
2022-08-01T14:49:06.740Z,9.52
2022-08-01T14:51:54.785Z,2.15
2022-08-01T14:54:38.048Z,2.60
2022-08-01T14:57:24.670Z,2.72
2022-08-01T15:00:06.790Z,2.97
2022-08-01T15:02:55.869Z,2.05
2022-08-01T15:05:36.576Z,3.00
2022-08-01T15:08:30.999Z,3.22
2022-08-01T15:11:11.569Z,4.13
2022-08-01T15:14:18.187Z,3.35
2022-08-01T15:16:58.958Z,2.30
2022-08-01T15:19:46.745Z,5.35
2022-08-01T15:22:29.587Z,3.53
2022-08-01T15:25:25.629Z,3.38
2022-08-01T15:28:27.583Z,2.75
2022-08-01T15:31:13.795Z,3.05
2022-08-01T15:34:05.581Z,1.70
2022-08-01T15:36:48.582Z,5.63
2022-08-01T15:39:35.939Z,1.50
2022-08-01T15:42:20.134Z,4.00
2022-08-01T15:45:37.483Z,4.07
2022-08-01T15:48:16.778Z,3.78
2022-08-01T15:51:03.602Z,4.75
2022-08-01T15:53:46.636Z,4.63
2022-08-01T15:56:37.724Z,2.58
2022-08-01T15:59:23.155Z,4.00
2022-08-01T16:02:10.270Z,5.57
2022-08-01T16:04:51.923Z,4.60
2022-08-01T16:07:59.710Z,3.20
2022-08-01T16:10:43.780Z,3.20
2022-08-01T16:13:32.046Z,1.77
2022-08-01T16:16:16.783Z,5.18
2022-08-01T16:19:05.970Z,2.15
2022-08-01T16:21:48.095Z,9.23
2022-08-01T16:24:38.004Z,1.38
2022-08-01T16:27:18.831Z,3.22
2022-08-01T16:30:07.874Z,6.32
2022-08-01T16:32:53.141Z,1.23
2022-08-01T16:35:46.902Z,1.75
2022-08-01T16:38:30.789Z,4.13
2022-08-01T16:41:21.670Z,3.00
2022-08-01T16:44:02.935Z,1.55
2022-08-01T16:46:51.380Z,3.17
2022-08-01T16:49:33.299Z,1.33
2022-08-01T16:52:28.545Z,1.90
2022-08-01T16:55:11.720Z,5.60
2022-08-01T16:57:59.645Z,1.73
2022-08-01T17:00:43.177Z,2.28
2022-08-01T17:03:51.540Z,1.55
2022-08-01T17:06:34.020Z,1.25
2022-08-01T17:09:21.642Z,6.10
2022-08-01T17:12:02.726Z,1.55
2022-08-01T17:14:55.050Z,1.67
2022-08-01T17:17:36.574Z,4.32
2022-08-01T17:20:23.645Z,2.78
2022-08-01T17:23:04.911Z,1.85
2022-08-01T17:25:53.638Z,2.88
2022-08-01T17:28:36.107Z,1.00
2022-08-01T17:31:24.039Z,3.47
2022-08-01T17:34:04.939Z,3.22
2022-08-01T17:36:55.418Z,5.05
2022-08-01T17:39:40.042Z,4.25
2022-08-01T17:42:26.668Z,3.75
2022-08-01T17:45:07.762Z,2.97
2022-08-01T17:48:22.663Z,1.83
2022-08-01T17:51:04.228Z,2.10
2022-08-01T17:53:57.255Z,1.45
2022-08-01T17:56:42.997Z,3.65
2022-08-01T17:59:33.651Z,1.30
2022-08-01T18:02:18.317Z,1.45
2022-08-01T18:05:09.631Z,4.25
2022-08-01T18:08:01.033Z,2.33
2022-08-01T18:10:49.656Z,1.35
2022-08-01T18:13:32.461Z,6.93
2022-08-01T18:16:20.051Z,1.45
2022-08-01T18:19:00.817Z,2.55
2022-08-01T18:21:51.571Z,3.20
2022-08-01T18:24:40.794Z,2.47
2022-08-01T18:27:21.681Z,3.50
2022-08-01T18:30:09.861Z,3.85
2022-08-01T18:32:51.059Z,2.13
2022-08-01T18:35:52.557Z,3.53
2022-08-01T18:38:39.058Z,1.52
2022-08-01T18:41:30.808Z,2.72
2022-08-01T18:44:14.464Z,3.50
2022-08-01T18:47:05.313Z,3.03
2022-08-01T18:49:49.717Z,3.70
2022-08-01T18:52:37.027Z,2.38
2022-08-01T18:55:18.072Z,1.80
2022-08-01T18:58:07.279Z,2.35
2022-08-01T19:00:50.057Z,2.75
2022-08-01T19:03:42.529Z,2.45
2022-08-01T19:06:24.152Z,4.78
2022-08-01T19:09:20.886Z,3.78
2022-08-01T19:12:02.528Z,4.22
2022-08-01T19:14:50.810Z,6.28
2022-08-01T19:17:35.551Z,2.08
2022-08-01T19:20:24.617Z,3.20
2022-08-01T19:23:05.707Z,2.83
2022-08-01T19:26:04.045Z,2.55
2022-08-01T19:28:54.120Z,3.33
2022-08-01T19:31:48.972Z,1.55
2022-08-01T19:34:31.108Z,2.80
2022-08-01T19:37:22.945Z,8.05
2022-08-01T19:40:08.091Z,5.47
2022-08-01T19:42:57.688Z,2.22
2022-08-01T19:45:41.496Z,5.18
2022-08-01T19:48:30.825Z,4.03
2022-08-01T19:51:19.869Z,4.97
2022-08-01T19:54:12.964Z,3.72
2022-08-01T19:56:56.564Z,3.72
2022-08-01T19:59:43.823Z,4.60
2022-08-01T20:02:30.704Z,3.92
2022-08-01T20:05:22.886Z,5.90
2022-08-01T20:08:05.775Z,6.45
2022-08-01T20:10:53.877Z,5.72
2022-08-01T20:13:39.222Z,4.72
2022-08-01T20:16:29.369Z,3.38
2022-08-01T20:19:09.772Z,5.80
2022-08-01T20:22:11.640Z,4.60
2022-08-01T20:25:11.141Z,1.85
2022-08-01T20:28:00.690Z,4.15
2022-08-01T20:30:43.147Z,3.00
2022-08-01T20:33:30.894Z,4.70
2022-08-01T20:36:24.993Z,3.60
2022-08-01T20:39:15.227Z,6.57
2022-08-01T20:41:59.593Z,3.17
2022-08-01T20:44:49.839Z,5.25
2022-08-01T20:47:33.871Z,2.55
2022-08-01T20:50:54.373Z,5.15
2022-08-01T20:53:38.523Z,2.83
2022-08-01T20:56:31.888Z,5.00
2022-08-01T20:59:39.806Z,4.38
2022-08-01T21:02:57.179Z,3.35
2022-08-01T21:05:41.110Z,5.68
2022-08-01T21:08:30.857Z,2.75
2022-08-01T21:11:14.522Z,6.13
2022-08-01T21:14:10.527Z,5.10
2022-08-01T21:16:57.791Z,2.47
2022-08-01T21:19:51.912Z,3.80
2022-08-01T21:22:44.797Z,5.70
2022-08-01T21:25:43.783Z,3.50
2022-08-01T21:28:33.180Z,2.58
2022-08-01T21:31:15.925Z,2.53
2022-08-01T21:34:14.772Z,4.05
2022-08-01T21:37:01.976Z,4.43
2022-08-01T21:39:45.576Z,2.40
2022-08-01T21:42:34.884Z,4.90
2022-08-01T21:48:37.147Z,2.33
2022-08-01T21:51:33.540Z,4.70
2022-08-01T21:54:30.910Z,4.25
2022-08-01T21:57:47.826Z,3.63
2022-08-01T22:00:42.278Z,2.35
2022-08-01T22:03:42.615Z,3.63
2022-08-01T22:06:34.968Z,4.68
2022-08-01T22:09:17.432Z,2.80
2022-08-01T22:15:03.623Z,3.70
2022-08-01T22:17:54.946Z,1.63
2022-08-01T22:20:35.811Z,4.55
2022-08-01T22:23:25.086Z,3.97
2022-08-01T22:26:17.569Z,4.07
2022-08-01T22:28:59.967Z,3.22
2022-08-01T22:31:47.834Z,3.20
2022-08-01T22:34:30.530Z,2.80
2022-08-01T22:37:55.899Z,3.05
2022-08-01T22:40:21.946Z,5.40
2022-08-01T22:43:14.193Z,4.85
2022-08-01T22:46:04.898Z,2.63
2022-08-01T22:49:00.647Z,1.80
2022-08-01T22:54:48.222Z,2.50
2022-08-01T22:57:38.485Z,1.70
2022-08-01T23:00:25.846Z,1.58
2022-08-01T23:03:31.933Z,4.20
2022-08-01T23:06:42.243Z,1.20
2022-08-01T23:09:25.153Z,1.40
2022-08-01T23:12:34.265Z,1.95
2022-08-01T23:15:15.145Z,2.42
2022-08-01T23:18:05.338Z,1.85
2022-08-01T23:20:46.099Z,3.17
2022-08-01T23:23:39.842Z,1.98
2022-08-01T23:26:36.855Z,4.03
2022-08-01T23:29:23.868Z,2.50
2022-08-01T23:32:05.775Z,3.15
2022-08-01T23:34:55.863Z,1.30
2022-08-01T23:37:38.969Z,1.77
2022-08-01T23:40:27.263Z,3.40
2022-08-01T23:43:14.569Z,1.90
2022-08-01T23:46:05.605Z,1.65
2022-08-01T23:48:46.996Z,1.50
2022-08-01T23:51:33.862Z,1.42
2022-08-01T23:54:15.419Z,3.35
2022-08-01T23:57:05.880Z,3.30
2022-08-01T23:59:52.859Z,2.15
